<?xml version="1.0" encoding="UTF-8" standalone="no" ?>
<gpx xmlns="http://www.topografix.com/GPX/1/1" xmlns:xsi="http://www.w3.org/2001/XMLSchema-instance" xsi:schemaLocation="http://www.topografix.com/GPX/1/1 http://www.topografix.com/GPX/1/1/gpx.xsd" version="1.1" creator="VisuGPX - https://www.visugpx.com">
  <metadata>
    <name>Raid Bulles : Barsuraubois</name>
    <desc><![CDATA[parcours RAID BULLES EN CHAMPAGNE 375KM]]></desc>
  </metadata>
  <wpt lat="48.1461" lon="4.76948">
    <ele>206.1</ele>
    <name><![CDATA[Ravitaillement chaud]]></name>
  </wpt>
  <wpt lat="48.14803" lon="4.83346">
    <ele>208.6</ele>
    <name><![CDATA[Départ réel]]></name>
  </wpt>
  <wpt lat="48.13585" lon="4.66919">
    <ele>253.9</ele>
    <name><![CDATA[Gravel début section]]></name>
  </wpt>
  <wpt lat="48.21735" lon="4.71382">
    <ele>168.8</ele>
  </wpt>
  <trk>
    <name><![CDATA[38. Petit circuit de camp romain-17237834]]></name>
    <extensions>
      <line xmlns="http://www.topografix.com/GPX/gpx_style/0/2">
        <color>07da15</color>
        <width>4</width>
      </line>
    </extensions>
    <trkseg>
      <trkpt lat="48.21956" lon="4.69885">
        <ele>311</ele>
        <time>2024-07-03T07:48:08Z</time>
      </trkpt>
      <trkpt lat="48.21927" lon="4.69889">
        <ele>309</ele>
        <time>2024-07-03T07:48:15Z</time>
      </trkpt>
      <trkpt lat="48.21904" lon="4.699">
        <ele>309</ele>
        <time>2024-07-03T07:48:20Z</time>
      </trkpt>
      <trkpt lat="48.21843" lon="4.69907">
        <ele>314</ele>
        <time>2024-07-03T07:48:35Z</time>
      </trkpt>
      <trkpt lat="48.21828" lon="4.69854">
        <ele>319</ele>
        <time>2024-07-03T07:48:44Z</time>
      </trkpt>
      <trkpt lat="48.21821" lon="4.698">
        <ele>320</ele>
        <time>2024-07-03T07:48:52Z</time>
      </trkpt>
      <trkpt lat="48.2183" lon="4.69711">
        <ele>318</ele>
        <time>2024-07-03T07:49:06Z</time>
      </trkpt>
      <trkpt lat="48.21831" lon="4.69682">
        <ele>317</ele>
        <time>2024-07-03T07:49:11Z</time>
      </trkpt>
      <trkpt lat="48.21827" lon="4.69674">
        <ele>317</ele>
        <time>2024-07-03T07:49:12Z</time>
      </trkpt>
      <trkpt lat="48.21821" lon="4.69671">
        <ele>317</ele>
        <time>2024-07-03T07:49:14Z</time>
      </trkpt>
      <trkpt lat="48.21796" lon="4.69674">
        <ele>318</ele>
        <time>2024-07-03T07:49:20Z</time>
      </trkpt>
      <trkpt lat="48.21765" lon="4.69672">
        <ele>319</ele>
        <time>2024-07-03T07:49:27Z</time>
      </trkpt>
      <trkpt lat="48.21698" lon="4.69656">
        <ele>320</ele>
        <time>2024-07-03T07:49:43Z</time>
      </trkpt>
      <trkpt lat="48.21612" lon="4.6965">
        <ele>319</ele>
        <time>2024-07-03T07:50:03Z</time>
      </trkpt>
      <trkpt lat="48.21568" lon="4.69661">
        <ele>319</ele>
        <time>2024-07-03T07:50:13Z</time>
      </trkpt>
      <trkpt lat="48.21521" lon="4.69687">
        <ele>319</ele>
        <time>2024-07-03T07:50:25Z</time>
      </trkpt>
      <trkpt lat="48.21455" lon="4.69757">
        <ele>320</ele>
        <time>2024-07-03T07:50:44Z</time>
      </trkpt>
      <trkpt lat="48.21424" lon="4.69798">
        <ele>321</ele>
        <time>2024-07-03T07:50:53Z</time>
      </trkpt>
      <trkpt lat="48.21379" lon="4.69834">
        <ele>324</ele>
        <time>2024-07-03T07:51:05Z</time>
      </trkpt>
      <trkpt lat="48.21367" lon="4.69839">
        <ele>324</ele>
        <time>2024-07-03T07:51:08Z</time>
      </trkpt>
      <trkpt lat="48.21348" lon="4.69843">
        <ele>324</ele>
        <time>2024-07-03T07:51:13Z</time>
      </trkpt>
      <trkpt lat="48.21311" lon="4.69841">
        <ele>324</ele>
        <time>2024-07-03T07:51:21Z</time>
      </trkpt>
      <trkpt lat="48.21295" lon="4.69844">
        <ele>325</ele>
        <time>2024-07-03T07:51:25Z</time>
      </trkpt>
      <trkpt lat="48.21268" lon="4.69839">
        <ele>326</ele>
        <time>2024-07-03T07:51:32Z</time>
      </trkpt>
      <trkpt lat="48.21231" lon="4.69848">
        <ele>329</ele>
        <time>2024-07-03T07:51:40Z</time>
      </trkpt>
      <trkpt lat="48.2119" lon="4.69873">
        <ele>331</ele>
        <time>2024-07-03T07:51:51Z</time>
      </trkpt>
      <trkpt lat="48.21149" lon="4.69879">
        <ele>333</ele>
        <time>2024-07-03T07:52:00Z</time>
      </trkpt>
      <trkpt lat="48.21104" lon="4.6987">
        <ele>336</ele>
        <time>2024-07-03T07:52:11Z</time>
      </trkpt>
      <trkpt lat="48.21061" lon="4.69867">
        <ele>337</ele>
        <time>2024-07-03T07:52:21Z</time>
      </trkpt>
      <trkpt lat="48.21005" lon="4.69852">
        <ele>338</ele>
        <time>2024-07-03T07:52:34Z</time>
      </trkpt>
      <trkpt lat="48.20984" lon="4.69851">
        <ele>338</ele>
        <time>2024-07-03T07:52:39Z</time>
      </trkpt>
      <trkpt lat="48.20962" lon="4.69853">
        <ele>338</ele>
        <time>2024-07-03T07:52:44Z</time>
      </trkpt>
      <trkpt lat="48.20874" lon="4.69874">
        <ele>340</ele>
        <time>2024-07-03T07:53:05Z</time>
      </trkpt>
      <trkpt lat="48.20845" lon="4.69885">
        <ele>341</ele>
        <time>2024-07-03T07:53:12Z</time>
      </trkpt>
      <trkpt lat="48.20843" lon="4.69882">
        <ele>341</ele>
        <time>2024-07-03T07:53:13Z</time>
      </trkpt>
      <trkpt lat="48.20919" lon="4.69524">
        <ele>344</ele>
        <time>2024-07-03T07:54:11Z</time>
      </trkpt>
      <trkpt lat="48.20934" lon="4.69488">
        <ele>345</ele>
        <time>2024-07-03T07:54:18Z</time>
      </trkpt>
      <trkpt lat="48.20975" lon="4.69414">
        <ele>348</ele>
        <time>2024-07-03T07:54:33Z</time>
      </trkpt>
      <trkpt lat="48.21013" lon="4.69401">
        <ele>350</ele>
        <time>2024-07-03T07:54:42Z</time>
      </trkpt>
      <trkpt lat="48.21036" lon="4.69406">
        <ele>351</ele>
        <time>2024-07-03T07:54:47Z</time>
      </trkpt>
      <trkpt lat="48.21075" lon="4.69429">
        <ele>352</ele>
        <time>2024-07-03T07:54:57Z</time>
      </trkpt>
      <trkpt lat="48.21124" lon="4.69411">
        <ele>352</ele>
        <time>2024-07-03T07:55:09Z</time>
      </trkpt>
      <trkpt lat="48.2114" lon="4.69392">
        <ele>351</ele>
        <time>2024-07-03T07:55:14Z</time>
      </trkpt>
      <trkpt lat="48.21142" lon="4.69334">
        <ele>351</ele>
        <time>2024-07-03T07:55:23Z</time>
      </trkpt>
      <trkpt lat="48.21176" lon="4.69306">
        <ele>347</ele>
        <time>2024-07-03T07:55:32Z</time>
      </trkpt>
      <trkpt lat="48.2121" lon="4.69776">
        <ele>332</ele>
        <time>2024-07-03T07:56:45Z</time>
      </trkpt>
      <trkpt lat="48.21219" lon="4.69803">
        <ele>330</ele>
        <time>2024-07-03T07:56:50Z</time>
      </trkpt>
      <trkpt lat="48.21244" lon="4.69822">
        <ele>328</ele>
        <time>2024-07-03T07:56:57Z</time>
      </trkpt>
      <trkpt lat="48.2133" lon="4.6984">
        <ele>323</ele>
        <time>2024-07-03T07:57:17Z</time>
      </trkpt>
      <trkpt lat="48.21388" lon="4.6982">
        <ele>323</ele>
        <time>2024-07-03T07:57:31Z</time>
      </trkpt>
      <trkpt lat="48.21579" lon="4.69656">
        <ele>319</ele>
        <time>2024-07-03T07:58:22Z</time>
      </trkpt>
      <trkpt lat="48.21731" lon="4.69657">
        <ele>320</ele>
        <time>2024-07-03T07:58:58Z</time>
      </trkpt>
      <trkpt lat="48.21872" lon="4.69701">
        <ele>315</ele>
        <time>2024-07-03T07:59:31Z</time>
      </trkpt>
      <trkpt lat="48.21934" lon="4.69691">
        <ele>310</ele>
        <time>2024-07-03T07:59:46Z</time>
      </trkpt>
      <trkpt lat="48.21956" lon="4.69885">
        <ele>311</ele>
        <time>2024-07-03T08:00:16Z</time>
      </trkpt>
    </trkseg>
  </trk>
</gpx>